sensor_id;sensor_type;location;lat;lon;timestamp;pressure;altitude;pressure_sealevel;temperature;humidity
69879;BME280;57161;43.136;24.706;2023-12-29T00:01:54;99792.53;;;3.54;71.74
69879;BME280;57161;43.136;24.706;2023-12-29T00:04:20;99795.03;;;3.52;70.58
69879;BME280;57161;43.136;24.706;2023-12-29T00:06:45;99759.47;;;3.24;70.08
69879;BME280;57161;43.136;24.706;2023-12-29T00:09:11;99773.25;;;3.39;69.67
69879;BME280;57161;43.136;24.706;2023-12-29T00:11:38;99787.34;;;3.41;70.24
69879;BME280;57161;43.136;24.706;2023-12-29T00:14:03;99801.06;;;3.36;70.27
69879;BME280;57161;43.136;24.706;2023-12-29T00:16:29;99771.63;;;3.12;70.69
69879;BME280;57161;43.136;24.706;2023-12-29T00:18:54;99784.19;;;3.13;70.89
69879;BME280;57161;43.136;24.706;2023-12-29T00:21:19;99804.13;;;3.23;71.13
69879;BME280;57161;43.136;24.706;2023-12-29T00:23:46;99811.28;;;3.29;71.59
69879;BME280;57161;43.136;24.706;2023-12-29T00:26:12;99803.59;;;3.19;72.52
69879;BME280;57161;43.136;24.706;2023-12-29T00:28:37;99811.59;;;3.17;73.31
69879;BME280;57161;43.136;24.706;2023-12-29T00:31:09;99817.47;;;3.24;73.93
69879;BME280;57161;43.136;24.706;2023-12-29T00:33:34;99806.53;;;3.30;74.61
69879;BME280;57161;43.136;24.706;2023-12-29T00:36:00;99797.09;;;3.22;75.41
69879;BME280;57161;43.136;24.706;2023-12-29T00:38:29;99811.19;;;3.24;75.78
69879;BME280;57161;43.136;24.706;2023-12-29T00:40:54;99805.50;;;3.13;76.83
69879;BME280;57161;43.136;24.706;2023-12-29T00:43:20;99816.44;;;3.22;76.18
69879;BME280;57161;43.136;24.706;2023-12-29T00:45:46;99789.31;;;3.06;74.44
69879;BME280;57161;43.136;24.706;2023-12-29T00:48:11;99804.75;;;3.12;74.84
69879;BME280;57161;43.136;24.706;2023-12-29T00:50:37;99797.78;;;3.02;75.40
69879;BME280;57161;43.136;24.706;2023-12-29T00:53:02;99813.09;;;3.18;73.58
69879;BME280;57161;43.136;24.706;2023-12-29T00:55:28;99817.41;;;3.04;73.17
69879;BME280;57161;43.136;24.706;2023-12-29T00:57:53;99817.41;;;3.04;73.37
69879;BME280;57161;43.136;24.706;2023-12-29T01:00:19;99815.03;;;3.12;73.16
69879;BME280;57161;43.136;24.706;2023-12-29T01:02:45;99804.97;;;2.94;73.24
69879;BME280;57161;43.136;24.706;2023-12-29T01:05:14;99812.91;;;3.07;72.52
69879;BME280;57161;43.136;24.706;2023-12-29T01:07:40;99817.53;;;2.95;72.02
69879;BME280;57161;43.136;24.706;2023-12-29T01:10:06;99789.53;;;2.87;71.89
69879;BME280;57161;43.136;24.706;2023-12-29T01:12:32;99815.31;;;2.99;71.67
69879;BME280;57161;43.136;24.706;2023-12-29T01:14:57;99801.31;;;3.03;70.91
69879;BME280;57161;43.136;24.706;2023-12-29T01:17:23;99793.81;;;2.88;70.95
69879;BME280;57161;43.136;24.706;2023-12-29T01:19:48;99797.59;;;2.91;70.59
69879;BME280;57161;43.136;24.706;2023-12-29T01:22:14;99805.88;;;2.91;70.43
69879;BME280;57161;43.136;24.706;2023-12-29T01:24:39;99809.59;;;2.88;70.89
69879;BME280;57161;43.136;24.706;2023-12-29T01:27:04;99820.84;;;2.99;70.79
69879;BME280;57161;43.136;24.706;2023-12-29T01:29:30;99765.75;;;2.60;71.10
69879;BME280;57161;43.136;24.706;2023-12-29T01:31:55;99793.25;;;2.69;71.68
69879;BME280;57161;43.136;24.706;2023-12-29T01:34:21;99811.78;;;2.69;72.83
69879;BME280;57161;43.136;24.706;2023-12-29T01:36:46;99813.53;;;2.81;72.94
69879;BME280;57161;43.136;24.706;2023-12-29T01:39:12;99796.09;;;2.75;72.56
69879;BME280;57161;43.136;24.706;2023-12-29T01:41:37;99806.66;;;2.77;72.99
69879;BME280;57161;43.136;24.706;2023-12-29T01:44:17;99808.84;;;2.72;73.10
69879;BME280;57161;43.136;24.706;2023-12-29T01:46:44;99798.47;;;2.82;72.95
69879;BME280;57161;43.136;24.706;2023-12-29T01:49:15;99810.09;;;2.86;73.22
69879;BME280;57161;43.136;24.706;2023-12-29T01:51:43;99799.25;;;2.83;74.50
69879;BME280;57161;43.136;24.706;2023-12-29T01:54:10;99795.63;;;2.77;74.58
69879;BME280;57161;43.136;24.706;2023-12-29T01:56:37;99794.09;;;2.76;75.08
69879;BME280;57161;43.136;24.706;2023-12-29T01:59:03;99783.44;;;2.54;75.47
69879;BME280;57161;43.136;24.706;2023-12-29T02:01:29;99785.34;;;2.62;76.46
69879;BME280;57161;43.136;24.706;2023-12-29T02:03:56;99793.25;;;2.69;76.37
69879;BME280;57161;43.136;24.706;2023-12-29T02:06:21;99785.16;;;2.66;76.29
69879;BME280;57161;43.136;24.706;2023-12-29T02:08:47;99808.28;;;2.83;75.88
69879;BME280;57161;43.136;24.706;2023-12-29T02:11:13;99809.53;;;2.82;73.91
69879;BME280;57161;43.136;24.706;2023-12-29T02:13:39;99802.19;;;2.94;73.29
69879;BME280;57161;43.136;24.706;2023-12-29T02:16:14;99813.41;;;2.90;73.28
69879;BME280;57161;43.136;24.706;2023-12-29T02:18:42;99804.09;;;2.88;73.49
69879;BME280;57161;43.136;24.706;2023-12-29T02:21:11;99790.13;;;2.77;72.96
69879;BME280;57161;43.136;24.706;2023-12-29T02:23:36;99813.72;;;2.78;72.83
69879;BME280;57161;43.136;24.706;2023-12-29T02:26:10;99805.88;;;2.76;72.95
69879;BME280;57161;43.136;24.706;2023-12-29T02:28:44;99804.00;;;2.82;72.75
69879;BME280;57161;43.136;24.706;2023-12-29T02:31:17;99787.72;;;2.69;72.50
69879;BME280;57161;43.136;24.706;2023-12-29T02:33:44;99807.13;;;2.75;72.07
69879;BME280;57161;43.136;24.706;2023-12-29T02:36:12;99791.44;;;2.66;72.29
69879;BME280;57161;43.136;24.706;2023-12-29T02:38:39;99780.00;;;2.44;72.90
69879;BME280;57161;43.136;24.706;2023-12-29T02:41:05;99793.34;;;2.46;73.61
69879;BME280;57161;43.136;24.706;2023-12-29T02:43:31;99779.06;;;2.47;74.29
69879;BME280;57161;43.136;24.706;2023-12-29T02:45:57;99793.03;;;2.58;74.67
69879;BME280;57161;43.136;24.706;2023-12-29T02:48:23;99783.34;;;2.48;74.11
69879;BME280;57161;43.136;24.706;2023-12-29T02:50:48;99785.53;;;2.44;74.33
69879;BME280;57161;43.136;24.706;2023-12-29T02:53:14;99786.44;;;2.26;74.39
69879;BME280;57161;43.136;24.706;2023-12-29T02:55:39;99773.13;;;2.25;74.27
69879;BME280;57161;43.136;24.706;2023-12-29T02:58:05;99764.75;;;2.19;74.25
69879;BME280;57161;43.136;24.706;2023-12-29T03:00:30;99778.34;;;2.23;74.12
69879;BME280;57161;43.136;24.706;2023-12-29T03:02:56;99784.91;;;2.25;74.44
69879;BME280;57161;43.136;24.706;2023-12-29T03:05:22;99793.84;;;2.20;74.34
69879;BME280;57161;43.136;24.706;2023-12-29T03:07:47;99786.81;;;2.19;74.69
69879;BME280;57161;43.136;24.706;2023-12-29T03:10:13;99788.63;;;2.22;74.43
69879;BME280;57161;43.136;24.706;2023-12-29T03:12:38;99769.75;;;2.06;74.46
69879;BME280;57161;43.136;24.706;2023-12-29T03:15:04;99773.41;;;2.12;74.48
69879;BME280;57161;43.136;24.706;2023-12-29T03:17:29;99766.66;;;2.13;74.04
69879;BME280;57161;43.136;24.706;2023-12-29T03:19:55;99759.97;;;2.05;74.90
69879;BME280;57161;43.136;24.706;2023-12-29T03:22:20;99767.41;;;2.14;75.44
69879;BME280;57161;43.136;24.706;2023-12-29T03:24:46;99759.31;;;2.10;75.76
69879;BME280;57161;43.136;24.706;2023-12-29T03:27:12;99754.69;;;2.16;76.15
69879;BME280;57161;43.136;24.706;2023-12-29T03:29:37;99755.81;;;2.24;76.41
69879;BME280;57161;43.136;24.706;2023-12-29T03:32:03;99768.38;;;2.25;76.72
69879;BME280;57161;43.136;24.706;2023-12-29T03:34:29;99757.34;;;2.25;75.84
69879;BME280;57161;43.136;24.706;2023-12-29T03:36:54;99762.28;;;2.21;75.35
69879;BME280;57161;43.136;24.706;2023-12-29T03:39:19;99766.56;;;2.22;75.38
69879;BME280;57161;43.136;24.706;2023-12-29T03:41:45;99763.94;;;2.28;75.72
69879;BME280;57161;43.136;24.706;2023-12-29T03:44:11;99741.84;;;2.13;75.94
69879;BME280;57161;43.136;24.706;2023-12-29T03:46:36;99758.09;;;2.26;75.68
69879;BME280;57161;43.136;24.706;2023-12-29T03:49:02;99752.00;;;2.07;75.88
69879;BME280;57161;43.136;24.706;2023-12-29T03:51:28;99754.47;;;2.05;76.93
69879;BME280;57161;43.136;24.706;2023-12-29T03:53:53;99723.72;;;1.83;77.18
69879;BME280;57161;43.136;24.706;2023-12-29T03:56:19;99739.81;;;1.99;77.48
69879;BME280;57161;43.136;24.706;2023-12-29T03:58:45;99748.47;;;2.06;76.69
69879;BME280;57161;43.136;24.706;2023-12-29T04:01:11;99761.72;;;2.17;76.38
69879;BME280;57161;43.136;24.706;2023-12-29T04:03:37;99746.28;;;2.10;76.81
69879;BME280;57161;43.136;24.706;2023-12-29T04:06:04;99747.19;;;2.31;76.49
69879;BME280;57161;43.136;24.706;2023-12-29T04:08:29;99753.66;;;2.43;76.23
69879;BME280;57161;43.136;24.706;2023-12-29T04:10:55;99744.53;;;2.37;75.67
69879;BME280;57161;43.136;24.706;2023-12-29T04:13:20;99746.91;;;2.44;75.59
69879;BME280;57161;43.136;24.706;2023-12-29T04:15:46;99749.47;;;2.48;75.89
69879;BME280;57161;43.136;24.706;2023-12-29T04:18:11;99726.66;;;2.32;76.95
69879;BME280;57161;43.136;24.706;2023-12-29T04:20:37;99753.19;;;2.59;76.39
69879;BME280;57161;43.136;24.706;2023-12-29T04:23:06;99741.97;;;2.48;76.00
69879;BME280;57161;43.136;24.706;2023-12-29T04:25:32;99728.38;;;2.30;75.90
69879;BME280;57161;43.136;24.706;2023-12-29T04:27:58;99738.06;;;2.40;76.95
69879;BME280;57161;43.136;24.706;2023-12-29T04:30:23;99743.09;;;2.41;75.98
69879;BME280;57161;43.136;24.706;2023-12-29T04:32:49;99727.88;;;2.31;76.26
69879;BME280;57161;43.136;24.706;2023-12-29T04:35:14;99718.34;;;2.18;75.64
69879;BME280;57161;43.136;24.706;2023-12-29T04:37:42;99748.44;;;2.45;75.75
69879;BME280;57161;43.136;24.706;2023-12-29T04:40:08;99743.84;;;2.57;74.47
69879;BME280;57161;43.136;24.706;2023-12-29T04:42:33;99741.41;;;2.44;73.99
69879;BME280;57161;43.136;24.706;2023-12-29T04:44:59;99762.78;;;2.49;73.97
69879;BME280;57161;43.136;24.706;2023-12-29T04:47:24;99757.56;;;2.36;74.17
69879;BME280;57161;43.136;24.706;2023-12-29T04:49:50;99752.31;;;2.53;74.74
69879;BME280;57161;43.136;24.706;2023-12-29T04:52:15;99726.94;;;2.34;74.94
69879;BME280;57161;43.136;24.706;2023-12-29T04:54:40;99748.13;;;2.43;75.86
69879;BME280;57161;43.136;24.706;2023-12-29T04:57:06;99756.59;;;2.54;76.05
69879;BME280;57161;43.136;24.706;2023-12-29T04:59:31;99735.50;;;2.51;75.34
69879;BME280;57161;43.136;24.706;2023-12-29T05:01:57;99760.81;;;2.64;75.19
69879;BME280;57161;43.136;24.706;2023-12-29T05:04:22;99755.84;;;2.68;74.84
69879;BME280;57161;43.136;24.706;2023-12-29T05:06:48;99765.38;;;2.67;74.45
69879;BME280;57161;43.136;24.706;2023-12-29T05:09:13;99754.53;;;2.49;74.47
69879;BME280;57161;43.136;24.706;2023-12-29T05:11:39;99759.34;;;2.39;75.00
69879;BME280;57161;43.136;24.706;2023-12-29T05:14:05;99765.06;;;2.36;75.15
69879;BME280;57161;43.136;24.706;2023-12-29T05:16:30;99767.91;;;2.41;75.56
69879;BME280;57161;43.136;24.706;2023-12-29T05:18:56;99769.16;;;2.40;75.80
69879;BME280;57161;43.136;24.706;2023-12-29T05:21:22;99768.38;;;2.40;76.02
69879;BME280;57161;43.136;24.706;2023-12-29T05:23:49;99767.91;;;2.41;76.65
69879;BME280;57161;43.136;24.706;2023-12-29T05:26:15;99760.22;;;2.46;76.29
69879;BME280;57161;43.136;24.706;2023-12-29T05:28:40;99779.44;;;2.55;75.46
69879;BME280;57161;43.136;24.706;2023-12-29T05:31:06;99766.69;;;2.57;74.79
69879;BME280;57161;43.136;24.706;2023-12-29T05:33:32;99773.84;;;2.64;75.40
69879;BME280;57161;43.136;24.706;2023-12-29T05:35:59;99758.31;;;2.52;75.43
69879;BME280;57161;43.136;24.706;2023-12-29T05:38:24;99773.63;;;2.53;75.79
69879;BME280;57161;43.136;24.706;2023-12-29T05:40:50;99772.03;;;2.46;75.92
69879;BME280;57161;43.136;24.706;2023-12-29T05:43:16;99769.44;;;2.42;75.74
69879;BME280;57161;43.136;24.706;2023-12-29T05:45:41;99750.22;;;2.19;75.83
69879;BME280;57161;43.136;24.706;2023-12-29T05:48:07;99773.03;;;2.19;76.12
69879;BME280;57161;43.136;24.706;2023-12-29T05:50:33;99776.59;;;2.10;76.48
69879;BME280;57161;43.136;24.706;2023-12-29T05:52:58;99767.94;;;2.03;76.33
69879;BME280;57161;43.136;24.706;2023-12-29T05:55:24;99784.31;;;2.06;76.55
69879;BME280;57161;43.136;24.706;2023-12-29T05:57:49;99763.28;;;2.09;76.15
69879;BME280;57161;43.136;24.706;2023-12-29T06:00:15;99771.97;;;2.17;75.04
69879;BME280;57161;43.136;24.706;2023-12-29T06:02:41;99759.09;;;1.99;74.07
69879;BME280;57161;43.136;24.706;2023-12-29T06:05:09;99778.97;;;2.03;74.35
69879;BME280;57161;43.136;24.706;2023-12-29T06:07:35;99783.53;;;2.06;73.98
69879;BME280;57161;43.136;24.706;2023-12-29T06:10:01;99790.22;;;2.14;73.88
69879;BME280;57161;43.136;24.706;2023-12-29T06:12:26;99762.63;;;1.99;74.08
69879;BME280;57161;43.136;24.706;2023-12-29T06:14:52;99778.91;;;2.12;74.78
69879;BME280;57161;43.136;24.706;2023-12-29T06:17:18;99760.34;;;1.98;74.43
69879;BME280;57161;43.136;24.706;2023-12-29T06:19:43;99773.88;;;2.25;73.41
69879;BME280;57161;43.136;24.706;2023-12-29T06:22:09;99790.84;;;2.33;72.43
69879;BME280;57161;43.136;24.706;2023-12-29T06:24:45;99765.13;;;2.12;72.88
69879;BME280;57161;43.136;24.706;2023-12-29T06:27:11;99766.53;;;2.07;73.03
69879;BME280;57161;43.136;24.706;2023-12-29T06:29:37;99753.59;;;1.99;73.04
69879;BME280;57161;43.136;24.706;2023-12-29T06:32:04;99789.19;;;2.26;73.64
69879;BME280;57161;43.136;24.706;2023-12-29T06:34:29;99781.19;;;2.14;73.75
69879;BME280;57161;43.136;24.706;2023-12-29T06:36:55;99795.59;;;2.32;73.86
69879;BME280;57161;43.136;24.706;2023-12-29T06:39:21;99787.41;;;2.38;73.68
69879;BME280;57161;43.136;24.706;2023-12-29T06:41:46;99780.75;;;2.30;73.46
69879;BME280;57161;43.136;24.706;2023-12-29T06:44:12;99802.38;;;2.46;73.86
69879;BME280;57161;43.136;24.706;2023-12-29T06:46:37;99780.59;;;2.48;73.50
69879;BME280;57161;43.136;24.706;2023-12-29T06:49:03;99775.63;;;2.52;73.66
69879;BME280;57161;43.136;24.706;2023-12-29T06:51:29;99796.75;;;2.70;72.73
69879;BME280;57161;43.136;24.706;2023-12-29T06:53:54;99806.97;;;2.79;72.93
69879;BME280;57161;43.136;24.706;2023-12-29T06:56:20;99795.81;;;2.73;73.43
69879;BME280;57161;43.136;24.706;2023-12-29T06:58:46;99795.59;;;2.91;72.88
69879;BME280;57161;43.136;24.706;2023-12-29T07:01:11;99799.88;;;3.07;72.28
69879;BME280;57161;43.136;24.706;2023-12-29T07:03:37;99801.13;;;3.06;71.87
69879;BME280;57161;43.136;24.706;2023-12-29T07:06:03;99804.56;;;3.01;71.76
69879;BME280;57161;43.136;24.706;2023-12-29T07:08:29;99793.88;;;3.09;71.66
69879;BME280;57161;43.136;24.706;2023-12-29T07:10:54;99809.56;;;3.32;70.72
69879;BME280;57161;43.136;24.706;2023-12-29T07:13:20;99814.06;;;3.29;70.77
69879;BME280;57161;43.136;24.706;2023-12-29T07:15:47;99826.88;;;3.47;71.17
69879;BME280;57161;43.136;24.706;2023-12-29T07:18:13;99777.72;;;3.37;70.35
69879;BME280;57161;43.136;24.706;2023-12-29T07:20:39;99792.91;;;3.61;70.53
69879;BME280;57161;43.136;24.706;2023-12-29T07:23:05;99820.72;;;3.93;69.58
69879;BME280;57161;43.136;24.706;2023-12-29T07:25:30;99812.97;;;3.97;69.19
69879;BME280;57161;43.136;24.706;2023-12-29T07:27:58;99802.94;;;4.00;69.09
69879;BME280;57161;43.136;24.706;2023-12-29T07:30:24;99820.63;;;4.28;68.78
69879;BME280;57161;43.136;24.706;2023-12-29T07:32:51;99819.03;;;4.42;68.13
69879;BME280;57161;43.136;24.706;2023-12-29T07:35:17;99801.44;;;4.45;67.27
69879;BME280;57161;43.136;24.706;2023-12-29T07:37:44;99793.16;;;4.45;67.58
69879;BME280;57161;43.136;24.706;2023-12-29T07:40:13;99816.88;;;4.77;66.79
69879;BME280;57161;43.136;24.706;2023-12-29T07:42:39;99812.66;;;4.88;66.68
69879;BME280;57161;43.136;24.706;2023-12-29T07:45:05;99811.03;;;5.01;65.34
69879;BME280;57161;43.136;24.706;2023-12-29T07:47:32;99815.38;;;5.08;65.01
69879;BME280;57161;43.136;24.706;2023-12-29T07:49:57;99803.06;;;5.09;64.85
69879;BME280;57161;43.136;24.706;2023-12-29T07:52:23;99811.22;;;5.24;65.15
69879;BME280;57161;43.136;24.706;2023-12-29T07:54:48;99805.97;;;5.31;65.42
69879;BME280;57161;43.136;24.706;2023-12-29T07:57:14;99812.88;;;5.47;64.58
69879;BME280;57161;43.136;24.706;2023-12-29T07:59:40;99802.72;;;5.33;64.85
69879;BME280;57161;43.136;24.706;2023-12-29T08:02:06;99817.44;;;5.50;64.79
69879;BME280;57161;43.136;24.706;2023-12-29T08:04:31;99821.22;;;5.53;64.96
69879;BME280;57161;43.136;24.706;2023-12-29T08:06:57;99824.13;;;5.69;64.56
69879;BME280;57161;43.136;24.706;2023-12-29T08:09:22;99839.31;;;5.85;64.23
69879;BME280;57161;43.136;24.706;2023-12-29T08:11:49;99836.69;;;6.02;63.50
69879;BME280;57161;43.136;24.706;2023-12-29T08:14:15;99827.06;;;5.97;63.10
69879;BME280;57161;43.136;24.706;2023-12-29T08:16:41;99837.47;;;6.14;63.00
69879;BME280;57161;43.136;24.706;2023-12-29T08:19:07;99857.47;;;6.29;63.53
69879;BME280;57161;43.136;24.706;2023-12-29T08:21:33;99852.47;;;6.39;63.24
69879;BME280;57161;43.136;24.706;2023-12-29T08:23:59;99846.47;;;6.62;62.53
69879;BME280;57161;43.136;24.706;2023-12-29T08:26:24;99830.09;;;6.70;62.42
69879;BME280;57161;43.136;24.706;2023-12-29T08:28:51;99848.56;;;6.90;62.47
69879;BME280;57161;43.136;24.706;2023-12-29T08:31:18;99848.06;;;7.08;61.87
69879;BME280;57161;43.136;24.706;2023-12-29T08:33:44;99858.44;;;7.25;61.72
69879;BME280;57161;43.136;24.706;2023-12-29T08:36:11;99844.50;;;7.47;61.30
69879;BME280;57161;43.136;24.706;2023-12-29T08:38:37;99856.66;;;7.44;61.73
69879;BME280;57161;43.136;24.706;2023-12-29T08:41:02;99856.13;;;7.68;61.30
69879;BME280;57161;43.136;24.706;2023-12-29T08:43:28;99838.16;;;7.74;60.83
69879;BME280;57161;43.136;24.706;2023-12-29T08:45:53;99855.31;;;7.95;60.46
69879;BME280;57161;43.136;24.706;2023-12-29T08:48:19;99845.97;;;7.87;60.63
69879;BME280;57161;43.136;24.706;2023-12-29T08:50:44;99859.31;;;8.11;59.63
69879;BME280;57161;43.136;24.706;2023-12-29T08:53:10;99852.91;;;8.27;59.45
69879;BME280;57161;43.136;24.706;2023-12-29T08:55:35;99850.66;;;8.31;59.63
69879;BME280;57161;43.136;24.706;2023-12-29T08:58:01;99858.34;;;8.61;60.89
69879;BME280;57161;43.136;24.706;2023-12-29T09:00:27;99862.84;;;8.75;62.39
69879;BME280;57161;43.136;24.706;2023-12-29T09:02:54;99849.06;;;9.29;61.34
69879;BME280;57161;43.136;24.706;2023-12-29T09:05:19;99860.44;;;9.86;61.20
69879;BME280;57161;43.136;24.706;2023-12-29T09:07:45;99855.84;;;10.13;60.66
69879;BME280;57161;43.136;24.706;2023-12-29T09:10:10;99863.47;;;10.56;59.47
69879;BME280;57161;43.136;24.706;2023-12-29T09:12:38;99841.88;;;10.75;58.68
69879;BME280;57161;43.136;24.706;2023-12-29T09:15:05;99848.88;;;10.81;58.43
69879;BME280;57161;43.136;24.706;2023-12-29T09:17:30;99851.06;;;11.07;57.81
69879;BME280;57161;43.136;24.706;2023-12-29T09:19:59;99840.63;;;11.08;57.45
69879;BME280;57161;43.136;24.706;2023-12-29T09:22:24;99844.50;;;11.18;57.85
69879;BME280;57161;43.136;24.706;2023-12-29T09:24:49;99834.56;;;11.36;56.77
69879;BME280;57161;43.136;24.706;2023-12-29T09:27:15;99826.94;;;11.50;56.07
69879;BME280;57161;43.136;24.706;2023-12-29T09:29:41;99833.69;;;11.73;55.86
69879;BME280;57161;43.136;24.706;2023-12-29T09:32:06;99834.22;;;11.85;55.80
69879;BME280;57161;43.136;24.706;2023-12-29T09:34:32;99819.34;;;11.77;55.41
69879;BME280;57161;43.136;24.706;2023-12-29T09:36:58;99829.50;;;11.93;55.22
69879;BME280;57161;43.136;24.706;2023-12-29T09:39:23;99829.38;;;11.98;54.73
69879;BME280;57161;43.136;24.706;2023-12-29T09:41:51;99824.13;;;12.08;54.99
69879;BME280;57161;43.136;24.706;2023-12-29T09:44:20;99824.19;;;12.29;54.44
69879;BME280;57161;43.136;24.706;2023-12-29T09:46:49;99818.94;;;12.25;54.75
69879;BME280;57161;43.136;24.706;2023-12-29T09:49:16;99822.03;;;12.35;54.37
69879;BME280;57161;43.136;24.706;2023-12-29T09:51:44;99818.66;;;12.50;54.15
69879;BME280;57161;43.136;24.706;2023-12-29T09:54:10;99805.19;;;12.48;54.02
69879;BME280;57161;43.136;24.706;2023-12-29T09:56:37;99805.84;;;12.54;53.80
69879;BME280;57161;43.136;24.706;2023-12-29T09:59:03;99808.84;;;12.56;53.90
69879;BME280;57161;43.136;24.706;2023-12-29T10:01:29;99813.16;;;12.57;54.07
69879;BME280;57161;43.136;24.706;2023-12-29T10:03:57;99814.03;;;12.86;53.09
69879;BME280;57161;43.136;24.706;2023-12-29T10:06:26;99812.44;;;12.78;53.28
69879;BME280;57161;43.136;24.706;2023-12-29T10:08:55;99798.97;;;12.76;53.20
69879;BME280;57161;43.136;24.706;2023-12-29T10:11:22;99794.47;;;12.94;52.54
69879;BME280;57161;43.136;24.706;2023-12-29T10:13:50;99778.09;;;12.85;52.82
69879;BME280;57161;43.136;24.706;2023-12-29T10:19:00;99789.53;;;12.87;53.28
69879;BME280;57161;43.136;24.706;2023-12-29T10:21:40;99783.84;;;13.00;52.91
69879;BME280;57161;43.136;24.706;2023-12-29T10:24:13;99782.97;;;13.05;52.78
69879;BME280;57161;43.136;24.706;2023-12-29T10:26:42;99779.06;;;13.08;52.39
69879;BME280;57161;43.136;24.706;2023-12-29T10:29:10;99787.09;;;13.25;52.40
69879;BME280;57161;43.136;24.706;2023-12-29T10:31:36;99780.78;;;13.32;52.41
69879;BME280;57161;43.136;24.706;2023-12-29T10:34:21;99773.34;;;13.35;51.91
69879;BME280;57161;43.136;24.706;2023-12-29T10:36:58;99779.34;;;13.39;52.03
69879;BME280;57161;43.136;24.706;2023-12-29T10:39:24;99756.78;;;13.24;52.58
69879;BME280;57161;43.136;24.706;2023-12-29T10:41:50;99754.56;;;13.30;51.68
69879;BME280;57161;43.136;24.706;2023-12-29T10:44:27;99773.94;;;13.41;52.05
69879;BME280;57161;43.136;24.706;2023-12-29T10:46:52;99764.38;;;13.36;51.79
69879;BME280;57161;43.136;24.706;2023-12-29T10:49:18;99777.78;;;13.51;51.63
69879;BME280;57161;43.136;24.706;2023-12-29T10:51:43;99766.03;;;13.60;51.57
69879;BME280;57161;43.136;24.706;2023-12-29T10:54:19;99754.44;;;13.64;50.98
69879;BME280;57161;43.136;24.706;2023-12-29T10:56:45;99741.59;;;13.47;51.39
69879;BME280;57161;43.136;24.706;2023-12-29T10:59:12;99748.94;;;13.50;51.33
69879;BME280;57161;43.136;24.706;2023-12-29T11:01:38;99745.78;;;13.54;51.77
69879;BME280;57161;43.136;24.706;2023-12-29T11:04:05;99723.25;;;13.46;51.71
69879;BME280;57161;43.136;24.706;2023-12-29T11:06:42;99730.06;;;13.59;51.92
69879;BME280;57161;43.136;24.706;2023-12-29T11:09:10;99725.28;;;13.67;51.02
69879;BME280;57161;43.136;24.706;2023-12-29T11:11:36;99714.25;;;13.69;51.49
69879;BME280;57161;43.136;24.706;2023-12-29T11:14:02;99717.25;;;13.78;51.10
69879;BME280;57161;43.136;24.706;2023-12-29T11:16:29;99696.31;;;13.79;50.84
69879;BME280;57161;43.136;24.706;2023-12-29T11:18:56;99707.94;;;13.84;51.34
69879;BME280;57161;43.136;24.706;2023-12-29T11:21:22;99709.09;;;13.96;50.90
69879;BME280;57161;43.136;24.706;2023-12-29T11:23:50;99692.09;;;14.01;50.84
69879;BME280;57161;43.136;24.706;2023-12-29T11:26:15;99704.84;;;14.10;50.65
69879;BME280;57161;43.136;24.706;2023-12-29T11:28:42;99705.47;;;14.31;50.18
69879;BME280;57161;43.136;24.706;2023-12-29T11:31:08;99704.19;;;14.40;49.99
69879;BME280;57161;43.136;24.706;2023-12-29T11:33:42;99703.13;;;14.51;49.49
69879;BME280;57161;43.136;24.706;2023-12-29T11:36:10;99702.41;;;14.65;49.51
69879;BME280;57161;43.136;24.706;2023-12-29T11:38:54;99700.16;;;14.79;48.92
69879;BME280;57161;43.136;24.706;2023-12-29T11:43:58;99689.28;;;14.98;47.97
69879;BME280;57161;43.136;24.706;2023-12-29T11:46:37;99687.22;;;14.91;47.92
69879;BME280;57161;43.136;24.706;2023-12-29T11:49:02;99690.63;;;14.97;47.96
69879;BME280;57161;43.136;24.706;2023-12-29T11:51:44;99690.22;;;14.93;47.76
69879;BME280;57161;43.136;24.706;2023-12-29T11:54:22;99685.91;;;14.85;48.14
69879;BME280;57161;43.136;24.706;2023-12-29T11:56:48;99669.41;;;14.74;47.80
69879;BME280;57161;43.136;24.706;2023-12-29T11:59:21;99669.22;;;14.71;48.00
69879;BME280;57161;43.136;24.706;2023-12-29T12:01:52;99675.97;;;14.68;48.10
69879;BME280;57161;43.136;24.706;2023-12-29T12:04:37;99685.16;;;14.69;48.01
69879;BME280;57161;43.136;24.706;2023-12-29T12:07:16;99676.50;;;14.59;47.99
69879;BME280;57161;43.136;24.706;2023-12-29T12:09:42;99665.66;;;14.48;48.31
69879;BME280;57161;43.136;24.706;2023-12-29T12:12:10;99673.31;;;14.55;48.81
69879;BME280;57161;43.136;24.706;2023-12-29T12:14:52;99681.41;;;14.66;47.91
69879;BME280;57161;43.136;24.706;2023-12-29T12:17:34;99676.13;;;14.63;48.47
69879;BME280;57161;43.136;24.706;2023-12-29T12:20:08;99675.19;;;14.60;48.31
69879;BME280;57161;43.136;24.706;2023-12-29T12:22:35;99656.47;;;14.55;48.07
69879;BME280;57161;43.136;24.706;2023-12-29T12:25:01;99663.38;;;14.62;48.10
69879;BME280;57161;43.136;24.706;2023-12-29T12:27:29;99652.16;;;14.54;48.08
69879;BME280;57161;43.136;24.706;2023-12-29T12:29:57;99661.13;;;14.60;48.10
69879;BME280;57161;43.136;24.706;2023-12-29T12:32:28;99662.81;;;14.63;47.72
69879;BME280;57161;43.136;24.706;2023-12-29T12:34:54;99662.25;;;14.57;47.57
69879;BME280;57161;43.136;24.706;2023-12-29T12:37:22;99647.41;;;14.41;47.85
69879;BME280;57161;43.136;24.706;2023-12-29T12:39:48;99655.88;;;14.57;47.58
69879;BME280;57161;43.136;24.706;2023-12-29T12:42:15;99649.91;;;14.68;47.20
69879;BME280;57161;43.136;24.706;2023-12-29T12:44:46;99667.34;;;14.74;47.10
69879;BME280;57161;43.136;24.706;2023-12-29T12:47:15;99669.78;;;14.78;47.56
69879;BME280;57161;43.136;24.706;2023-12-29T12:49:42;99661.50;;;14.80;47.33
69879;BME280;57161;43.136;24.706;2023-12-29T12:52:08;99650.47;;;14.74;47.17
69879;BME280;57161;43.136;24.706;2023-12-29T12:54:34;99658.16;;;14.74;46.93
69879;BME280;57161;43.136;24.706;2023-12-29T12:56:59;99656.66;;;14.73;46.97
69879;BME280;57161;43.136;24.706;2023-12-29T12:59:27;99664.53;;;14.82;46.73
69879;BME280;57161;43.136;24.706;2023-12-29T13:01:53;99664.53;;;14.74;46.93